sensor_id;sensor_type;location;lat;lon;timestamp;pressure;altitude;pressure_sealevel;temperature;humidity
23996;BME280;12207;50.076;8.848;2022-07-10T00:00:57;100843.78;;;16.00;100.00
23996;BME280;12207;50.076;8.848;2022-07-10T00:03:23;100836.75;;;15.96;100.00
23996;BME280;12207;50.076;8.848;2022-07-10T00:05:50;100826.81;;;16.05;100.00
23996;BME280;12207;50.076;8.848;2022-07-10T00:08:17;100839.41;;;15.98;100.00
23996;BME280;12207;50.076;8.848;2022-07-10T00:10:44;100829.75;;;15.92;100.00
23996;BME280;12207;50.076;8.848;2022-07-10T00:13:10;100838.16;;;15.88;100.00
23996;BME280;12207;50.076;8.848;2022-07-10T00:15:37;100830.19;;;15.82;100.00
23996;BME280;12207;50.076;8.848;2022-07-10T00:18:04;100830.31;;;15.85;100.00
23996;BME280;12207;50.076;8.848;2022-07-10T00:20:30;100840.44;;;15.80;100.00
23996;BME280;12207;50.076;8.848;2022-07-10T00:22:57;100830.19;;;15.82;100.00
23996;BME280;12207;50.076;8.848;2022-07-10T00:25:24;100835.09;;;15.76;100.00
23996;BME280;12207;50.076;8.848;2022-07-10T00:27:51;100837.53;;;15.72;100.00
23996;BME280;12207;50.076;8.848;2022-07-10T00:30:18;100839.81;;;15.66;100.00
23996;BME280;12207;50.076;8.848;2022-07-10T00:32:44;100842.84;;;15.56;100.00
23996;BME280;12207;50.076;8.848;2022-07-10T00:35:11;100842.66;;;15.52;100.00
23996;BME280;12207;50.076;8.848;2022-07-10T00:37:38;100841.53;;;15.45;100.00
23996;BME280;12207;50.076;8.848;2022-07-10T00:40:05;100838.75;;;15.40;100.00
23996;BME280;12207;50.076;8.848;2022-07-10T00:42:32;100833.59;;;15.40;100.00
23996;BME280;12207;50.076;8.848;2022-07-10T00:44:58;100844.56;;;15.36;100.00
23996;BME280;12207;50.076;8.848;2022-07-10T00:47:25;100850.56;;;15.35;100.00
23996;BME280;12207;50.076;8.848;2022-07-10T00:49:52;100850.69;;;15.38;100.00
23996;BME280;12207;50.076;8.848;2022-07-10T00:52:19;100852.03;;;15.30;100.00
23996;BME280;12207;50.076;8.848;2022-07-10T00:54:48;100854.53;;;15.28;100.00
23996;BME280;12207;50.076;8.848;2022-07-10T00:57:18;100850.78;;;15.20;100.00
23996;BME280;12207;50.076;8.848;2022-07-10T00:59:45;100857.41;;;15.15;100.00
23996;BME280;12207;50.076;8.848;2022-07-10T01:02:14;100850.50;;;15.14;100.00
23996;BME280;12207;50.076;8.848;2022-07-10T01:04:41;100859.56;;;15.06;100.00
23996;BME280;12207;50.076;8.848;2022-07-10T01:07:07;100855.38;;;15.08;100.00
23996;BME280;12207;50.076;8.848;2022-07-10T01:09:34;100853.59;;;15.07;100.00
23996;BME280;12207;50.076;8.848;2022-07-10T01:12:02;100857.47;;;14.97;100.00
23996;BME280;12207;50.076;8.848;2022-07-10T01:14:30;100849.41;;;14.90;100.00
23996;BME280;12207;50.076;8.848;2022-07-10T01:16:58;100850.31;;;14.90;100.00
23996;BME280;12207;50.076;8.848;2022-07-10T01:19:25;100849.75;;;14.97;100.00
23996;BME280;12207;50.076;8.848;2022-07-10T01:21:52;100850.50;;;14.95;100.00
23996;BME280;12207;50.076;8.848;2022-07-10T01:24:19;100854.34;;;15.04;100.00
23996;BME280;12207;50.076;8.848;2022-07-10T01:26:45;100854.81;;;14.96;100.00
23996;BME280;12207;50.076;8.848;2022-07-10T01:29:12;100855.50;;;14.92;100.00
23996;BME280;12207;50.076;8.848;2022-07-10T01:31:39;100853.22;;;14.98;100.00
23996;BME280;12207;50.076;8.848;2022-07-10T01:34:08;100853.63;;;14.88;100.00
23996;BME280;12207;50.076;8.848;2022-07-10T01:36:38;100852.59;;;14.84;100.00
23996;BME280;12207;50.076;8.848;2022-07-10T01:39:05;100856.94;;;14.85;100.00
23996;BME280;12207;50.076;8.848;2022-07-10T01:41:32;100861.22;;;14.85;100.00
23996;BME280;12207;50.076;8.848;2022-07-10T01:44:00;100867.13;;;14.84;100.00
23996;BME280;12207;50.076;8.848;2022-07-10T01:46:26;100855.94;;;14.81;100.00
23996;BME280;12207;50.076;8.848;2022-07-10T01:48:53;100855.53;;;14.72;100.00
23996;BME280;12207;50.076;8.848;2022-07-10T01:51:20;100855.53;;;14.72;100.00
23996;BME280;12207;50.076;8.848;2022-07-10T01:53:47;100858.00;;;14.71;100.00
23996;BME280;12207;50.076;8.848;2022-07-10T01:56:15;100867.00;;;14.61;100.00
23996;BME280;12207;50.076;8.848;2022-07-10T01:58:42;100861.63;;;14.56;100.00
23996;BME280;12207;50.076;8.848;2022-07-10T02:01:09;100859.63;;;14.69;100.00
23996;BME280;12207;50.076;8.848;2022-07-10T02:03:37;100867.00;;;14.61;100.00
23996;BME280;12207;50.076;8.848;2022-07-10T02:06:22;100855.03;;;14.62;100.00
23996;BME280;12207;50.076;8.848;2022-07-10T02:08:50;100857.31;;;14.55;100.00
23996;BME280;12207;50.076;8.848;2022-07-10T02:11:16;100850.34;;;14.53;100.00
23996;BME280;12207;50.076;8.848;2022-07-10T02:13:43;100853.94;;;14.56;100.00
23996;BME280;12207;50.076;8.848;2022-07-10T02:16:10;100863.31;;;14.56;100.00
23996;BME280;12207;50.076;8.848;2022-07-10T02:18:37;100853.19;;;14.41;100.00
23996;BME280;12207;50.076;8.848;2022-07-10T02:21:05;100852.59;;;14.47;100.00
23996;BME280;12207;50.076;8.848;2022-07-10T02:23:32;100847.25;;;14.42;100.00
23996;BME280;12207;50.076;8.848;2022-07-10T02:25:59;100838.66;;;14.42;100.00
23996;BME280;12207;50.076;8.848;2022-07-10T02:28:25;100847.09;;;14.39;100.00
23996;BME280;12207;50.076;8.848;2022-07-10T02:30:52;100841.91;;;14.38;100.00
23996;BME280;12207;50.076;8.848;2022-07-10T02:33:19;100849.47;;;14.34;100.00
23996;BME280;12207;50.076;8.848;2022-07-10T02:35:45;100854.38;;;14.30;100.00
23996;BME280;12207;50.076;8.848;2022-07-10T02:38:12;100857.81;;;14.30;100.00
23996;BME280;12207;50.076;8.848;2022-07-10T02:40:39;100851.81;;;14.30;100.00
23996;BME280;12207;50.076;8.848;2022-07-10T02:43:05;100848.50;;;14.32;100.00
23996;BME280;12207;50.076;8.848;2022-07-10T02:45:32;100853.72;;;14.34;100.00
23996;BME280;12207;50.076;8.848;2022-07-10T02:47:59;100847.78;;;14.35;100.00
23996;BME280;12207;50.076;8.848;2022-07-10T02:50:25;100861.00;;;14.25;100.00
23996;BME280;12207;50.076;8.848;2022-07-10T02:52:52;100862.66;;;14.24;100.00
23996;BME280;12207;50.076;8.848;2022-07-10T02:55:19;100868.19;;;14.32;100.00
23996;BME280;12207;50.076;8.848;2022-07-10T02:57:45;100869.06;;;14.32;100.00
23996;BME280;12207;50.076;8.848;2022-07-10T03:00:12;100869.94;;;14.33;100.00
23996;BME280;12207;50.076;8.848;2022-07-10T03:02:39;100877.34;;;14.27;100.00
23996;BME280;12207;50.076;8.848;2022-07-10T03:05:06;100875.66;;;14.27;100.00
23996;BME280;12207;50.076;8.848;2022-07-10T03:07:33;100876.03;;;14.35;100.00
23996;BME280;12207;50.076;8.848;2022-07-10T03:10:00;100872.03;;;14.42;100.00
23996;BME280;12207;50.076;8.848;2022-07-10T03:12:26;100880.03;;;14.48;100.00
23996;BME280;12207;50.076;8.848;2022-07-10T03:14:53;100873.47;;;14.53;100.00
23996;BME280;12207;50.076;8.848;2022-07-10T03:17:20;100872.63;;;14.54;100.00
23996;BME280;12207;50.076;8.848;2022-07-10T03:19:46;100875.44;;;14.58;100.00
23996;BME280;12207;50.076;8.848;2022-07-10T03:22:13;100875.78;;;14.48;100.00
23996;BME280;12207;50.076;8.848;2022-07-10T03:24:40;100870.72;;;14.50;100.00
23996;BME280;12207;50.076;8.848;2022-07-10T03:27:07;100875.78;;;14.48;100.00
23996;BME280;12207;50.076;8.848;2022-07-10T03:29:34;100874.28;;;14.52;100.00
23996;BME280;12207;50.076;8.848;2022-07-10T03:32:00;100872.28;;;14.46;100.00
23996;BME280;12207;50.076;8.848;2022-07-10T03:34:27;100880.03;;;14.48;100.00
23996;BME280;12207;50.076;8.848;2022-07-10T03:36:54;100874.97;;;14.49;100.00
23996;BME280;12207;50.076;8.848;2022-07-10T03:39:22;100886.94;;;14.49;100.00
23996;BME280;12207;50.076;8.848;2022-07-10T03:41:48;100870.72;;;14.50;100.00
23996;BME280;12207;50.076;8.848;2022-07-10T03:44:15;100881.88;;;14.50;100.00
23996;BME280;12207;50.076;8.848;2022-07-10T03:46:42;100878.66;;;14.54;100.00
23996;BME280;12207;50.076;8.848;2022-07-10T03:49:08;100874.97;;;14.49;100.00
23996;BME280;12207;50.076;8.848;2022-07-10T03:51:35;100876.25;;;14.57;100.00
23996;BME280;12207;50.076;8.848;2022-07-10T03:54:02;100878.28;;;14.65;100.00
23996;BME280;12207;50.076;8.848;2022-07-10T03:56:28;100879.03;;;14.62;100.00
23996;BME280;12207;50.076;8.848;2022-07-10T03:59:14;100875.31;;;14.75;100.00
23996;BME280;12207;50.076;8.848;2022-07-10T04:01:40;100882.81;;;14.70;100.00
23996;BME280;12207;50.076;8.848;2022-07-10T04:04:07;100886.50;;;14.75;99.06
23996;BME280;12207;50.076;8.848;2022-07-10T04:06:34;100885.31;;;14.69;99.53
23996;BME280;12207;50.076;8.848;2022-07-10T04:09:00;100889.38;;;14.83;99.55
23996;BME280;12207;50.076;8.848;2022-07-10T04:11:27;100890.66;;;15.32;95.95
23996;BME280;12207;50.076;8.848;2022-07-10T04:13:54;100885.50;;;16.35;90.00
23996;BME280;12207;50.076;8.848;2022-07-10T04:16:20;100883.13;;;17.58;85.63
23996;BME280;12207;50.076;8.848;2022-07-10T04:18:47;100889.78;;;18.58;79.66
23996;BME280;12207;50.076;8.848;2022-07-10T04:21:15;100896.50;;;18.25;79.17
23996;BME280;12207;50.076;8.848;2022-07-10T04:23:41;100891.50;;;17.76;82.24
23996;BME280;12207;50.076;8.848;2022-07-10T04:26:08;100894.22;;;17.06;83.80
23996;BME280;12207;50.076;8.848;2022-07-10T04:28:35;100890.59;;;16.56;88.42
23996;BME280;12207;50.076;8.848;2022-07-10T04:31:01;100886.31;;;16.34;88.81
23996;BME280;12207;50.076;8.848;2022-07-10T04:33:28;100888.22;;;15.94;91.17
23996;BME280;12207;50.076;8.848;2022-07-10T04:35:55;100889.34;;;15.61;92.32
23996;BME280;12207;50.076;8.848;2022-07-10T04:38:21;100901.81;;;15.52;94.69
23996;BME280;12207;50.076;8.848;2022-07-10T04:40:48;100907.78;;;15.50;94.26
23996;BME280;12207;50.076;8.848;2022-07-10T04:43:15;100912.81;;;15.47;92.49
23996;BME280;12207;50.076;8.848;2022-07-10T04:45:41;100918.22;;;15.34;92.57
23996;BME280;12207;50.076;8.848;2022-07-10T04:48:08;100909.97;;;15.22;94.60
23996;BME280;12207;50.076;8.848;2022-07-10T04:50:35;100913.09;;;15.15;94.08
23996;BME280;12207;50.076;8.848;2022-07-10T04:53:02;100918.28;;;14.97;94.90
23996;BME280;12207;50.076;8.848;2022-07-10T04:55:29;100922.66;;;14.80;94.84
23996;BME280;12207;50.076;8.848;2022-07-10T04:57:55;100922.94;;;14.86;95.18
23996;BME280;12207;50.076;8.848;2022-07-10T05:00:22;100918.91;;;14.91;94.09
23996;BME280;12207;50.076;8.848;2022-07-10T05:02:49;100916.50;;;14.96;94.45
23996;BME280;12207;50.076;8.848;2022-07-10T05:05:15;100918.84;;;15.09;94.28
23996;BME280;12207;50.076;8.848;2022-07-10T05:07:42;100919.59;;;15.26;91.82
23996;BME280;12207;50.076;8.848;2022-07-10T05:10:09;100922.47;;;15.34;92.95
23996;BME280;12207;50.076;8.848;2022-07-10T05:12:36;100925.31;;;15.40;91.01
23996;BME280;12207;50.076;8.848;2022-07-10T05:15:03;100922.84;;;15.82;92.22
23996;BME280;12207;50.076;8.848;2022-07-10T05:17:30;100926.81;;;16.15;86.93
23996;BME280;12207;50.076;8.848;2022-07-10T05:19:58;100925.16;;;16.17;85.16
23996;BME280;12207;50.076;8.848;2022-07-10T05:22:25;100925.84;;;16.34;85.06
23996;BME280;12207;50.076;8.848;2022-07-10T05:24:52;100918.25;;;17.54;81.22
23996;BME280;12207;50.076;8.848;2022-07-10T05:27:19;100917.75;;;18.72;73.21
23996;BME280;12207;50.076;8.848;2022-07-10T05:29:47;100917.00;;;20.01;65.42
23996;BME280;12207;50.076;8.848;2022-07-10T05:32:14;100916.97;;;20.37;63.05
23996;BME280;12207;50.076;8.848;2022-07-10T05:34:41;100921.53;;;19.75;65.42
23996;BME280;12207;50.076;8.848;2022-07-10T05:37:07;100924.84;;;19.69;64.83
23996;BME280;12207;50.076;8.848;2022-07-10T05:39:34;100928.25;;;18.20;69.60
23996;BME280;12207;50.076;8.848;2022-07-10T05:42:01;100930.16;;;17.25;73.76
23996;BME280;12207;50.076;8.848;2022-07-10T05:44:28;100936.19;;;17.02;75.87
23996;BME280;12207;50.076;8.848;2022-07-10T05:46:55;100933.22;;;16.48;79.35
23996;BME280;12207;50.076;8.848;2022-07-10T05:49:21;100935.78;;;16.25;79.72
23996;BME280;12207;50.076;8.848;2022-07-10T05:51:48;100933.31;;;16.28;79.72
23996;BME280;12207;50.076;8.848;2022-07-10T05:54:15;100935.53;;;16.19;80.69
23996;BME280;12207;50.076;8.848;2022-07-10T05:56:41;100943.00;;;16.56;78.81
23996;BME280;12207;50.076;8.848;2022-07-10T05:59:08;100950.41;;;16.26;78.96
23996;BME280;12207;50.076;8.848;2022-07-10T06:01:35;100947.94;;;16.29;80.83
23996;BME280;12207;50.076;8.848;2022-07-10T06:04:02;100948.38;;;16.40;79.56
23996;BME280;12207;50.076;8.848;2022-07-10T06:06:29;100941.25;;;17.23;76.07
23996;BME280;12207;50.076;8.848;2022-07-10T06:08:56;100953.50;;;17.28;76.24
23996;BME280;12207;50.076;8.848;2022-07-10T06:11:23;100958.38;;;17.21;73.99
23996;BME280;12207;50.076;8.848;2022-07-10T06:13:50;100955.75;;;16.97;76.46
23996;BME280;12207;50.076;8.848;2022-07-10T06:16:17;100951.56;;;16.99;75.42
23996;BME280;12207;50.076;8.848;2022-07-10T06:18:43;100957.72;;;17.04;77.07
23996;BME280;12207;50.076;8.848;2022-07-10T06:21:10;100960.00;;;17.19;74.92
23996;BME280;12207;50.076;8.848;2022-07-10T06:23:37;100952.78;;;17.33;74.87
23996;BME280;12207;50.076;8.848;2022-07-10T06:26:03;100953.81;;;17.38;74.32
23996;BME280;12207;50.076;8.848;2022-07-10T06:28:30;100951.88;;;17.56;72.75
23996;BME280;12207;50.076;8.848;2022-07-10T06:30:57;100949.34;;;17.58;73.63
23996;BME280;12207;50.076;8.848;2022-07-10T06:33:23;100952.25;;;17.91;71.98
23996;BME280;12207;50.076;8.848;2022-07-10T06:35:50;100956.03;;;18.01;70.31
23996;BME280;12207;50.076;8.848;2022-07-10T06:38:17;100950.06;;;18.57;67.10
23996;BME280;12207;50.076;8.848;2022-07-10T06:40:45;100947.69;;;18.63;68.35
23996;BME280;12207;50.076;8.848;2022-07-10T06:43:13;100952.25;;;19.63;65.60
23996;BME280;12207;50.076;8.848;2022-07-10T06:45:40;100951.69;;;19.73;60.74
23996;BME280;12207;50.076;8.848;2022-07-10T06:48:07;100962.72;;;19.66;60.51
23996;BME280;12207;50.076;8.848;2022-07-10T06:50:34;100954.50;;;19.50;60.79
23996;BME280;12207;50.076;8.848;2022-07-10T06:53:02;100951.78;;;19.14;63.97
23996;BME280;12207;50.076;8.848;2022-07-10T06:55:29;100950.81;;;18.80;65.07
23996;BME280;12207;50.076;8.848;2022-07-10T06:57:56;100955.25;;;18.03;63.93
23996;BME280;12207;50.076;8.848;2022-07-10T07:00:23;100947.66;;;18.90;60.89
23996;BME280;12207;50.076;8.848;2022-07-10T07:02:49;100952.38;;;18.75;60.25
23996;BME280;12207;50.076;8.848;2022-07-10T07:05:16;100935.56;;;18.34;61.55
23996;BME280;12207;50.076;8.848;2022-07-10T07:07:43;100959.69;;;18.34;62.49
23996;BME280;12207;50.076;8.848;2022-07-10T07:10:10;100961.28;;;18.04;61.58
23996;BME280;12207;50.076;8.848;2022-07-10T07:12:38;100954.91;;;18.19;61.42
23996;BME280;12207;50.076;8.848;2022-07-10T07:15:05;100954.91;;;18.47;62.95
23996;BME280;12207;50.076;8.848;2022-07-10T07:17:32;100956.81;;;18.25;60.67
23996;BME280;12207;50.076;8.848;2022-07-10T07:20:13;100946.16;;;18.41;63.09
23996;BME280;12207;50.076;8.848;2022-07-10T07:22:58;100939.59;;;18.53;60.99
23996;BME280;12207;50.076;8.848;2022-07-10T07:25:38;100952.75;;;18.87;59.15
23996;BME280;12207;50.076;8.848;2022-07-10T07:28:07;100948.25;;;19.10;59.49
23996;BME280;12207;50.076;8.848;2022-07-10T07:30:34;100945.72;;;19.44;58.27
23996;BME280;12207;50.076;8.848;2022-07-10T07:33:00;100954.34;;;19.44;57.62
23996;BME280;12207;50.076;8.848;2022-07-10T07:35:27;100949.00;;;18.78;54.55
23996;BME280;12207;50.076;8.848;2022-07-10T07:37:54;100942.28;;;18.83;56.50
23996;BME280;12207;50.076;8.848;2022-07-10T07:40:22;100944.25;;;19.22;56.48
23996;BME280;12207;50.076;8.848;2022-07-10T07:42:51;100947.16;;;18.74;57.13
23996;BME280;12207;50.076;8.848;2022-07-10T07:45:18;100940.47;;;18.80;56.57
23996;BME280;12207;50.076;8.848;2022-07-10T07:47:45;100938.50;;;18.44;59.16
23996;BME280;12207;50.076;8.848;2022-07-10T07:50:17;100945.25;;;18.68;58.04
23996;BME280;12207;50.076;8.848;2022-07-10T07:52:45;100953.00;;;18.68;58.63
23996;BME280;12207;50.076;8.848;2022-07-10T07:55:13;100953.03;;;18.70;57.82
23996;BME280;12207;50.076;8.848;2022-07-10T07:57:41;100949.00;;;18.78;57.31
23996;BME280;12207;50.076;8.848;2022-07-10T08:00:09;100946.00;;;18.37;57.56
23996;BME280;12207;50.076;8.848;2022-07-10T08:02:37;100942.34;;;18.30;58.66
23996;BME280;12207;50.076;8.848;2022-07-10T08:05:04;100947.84;;;18.41;58.85
23996;BME280;12207;50.076;8.848;2022-07-10T08:07:46;100947.50;;;18.57;58.39
23996;BME280;12207;50.076;8.848;2022-07-10T08:10:18;100943.69;;;18.46;60.76
23996;BME280;12207;50.076;8.848;2022-07-10T08:12:46;100954.22;;;18.52;60.22
23996;BME280;12207;50.076;8.848;2022-07-10T08:15:16;100951.81;;;18.04;59.12
23996;BME280;12207;50.076;8.848;2022-07-10T08:17:46;100951.44;;;18.19;61.88
23996;BME280;12207;50.076;8.848;2022-07-10T08:20:13;100940.09;;;18.14;61.52
23996;BME280;12207;50.076;8.848;2022-07-10T08:22:41;100945.72;;;18.02;60.40
23996;BME280;12207;50.076;8.848;2022-07-10T08:25:09;100946.97;;;18.40;61.08
23996;BME280;12207;50.076;8.848;2022-07-10T08:27:36;100952.56;;;18.00;60.19
23996;BME280;12207;50.076;8.848;2022-07-10T08:30:04;100950.31;;;18.11;60.39
23996;BME280;12207;50.076;8.848;2022-07-10T08:32:31;100948.38;;;18.04;61.65
23996;BME280;12207;50.076;8.848;2022-07-10T08:34:58;100951.69;;;18.54;59.93
23996;BME280;12207;50.076;8.848;2022-07-10T08:37:27;100946.84;;;18.64;59.66
23996;BME280;12207;50.076;8.848;2022-07-10T08:39:54;100943.16;;;18.56;59.44
23996;BME280;12207;50.076;8.848;2022-07-10T08:42:21;100943.34;;;18.91;58.98
23996;BME280;12207;50.076;8.848;2022-07-10T08:44:49;100952.50;;;18.80;58.45
23996;BME280;12207;50.076;8.848;2022-07-10T08:47:21;100954.22;;;18.79;60.52
23996;BME280;12207;50.076;8.848;2022-07-10T08:49:48;100952.66;;;18.84;62.66
23996;BME280;12207;50.076;8.848;2022-07-10T08:52:32;100953.50;;;18.56;61.72
23996;BME280;12207;50.076;8.848;2022-07-10T08:55:00;100948.78;;;18.72;61.23
23996;BME280;12207;50.076;8.848;2022-07-10T08:57:27;100949.38;;;18.90;61.29
23996;BME280;12207;50.076;8.848;2022-07-10T08:59:56;100953.78;;;19.24;59.73
23996;BME280;12207;50.076;8.848;2022-07-10T09:02:22;100952.41;;;18.77;59.49
23996;BME280;12207;50.076;8.848;2022-07-10T09:04:49;100940.81;;;18.93;59.58
23996;BME280;12207;50.076;8.848;2022-07-10T09:07:16;100941.75;;;19.25;60.18
23996;BME280;12207;50.076;8.848;2022-07-10T09:09:54;100938.47;;;19.32;58.46
23996;BME280;12207;50.076;8.848;2022-07-10T09:12:24;100944.38;;;19.26;59.30
23996;BME280;12207;50.076;8.848;2022-07-10T09:14:51;100952.63;;;18.83;57.51
23996;BME280;12207;50.076;8.848;2022-07-10T09:17:18;100950.66;;;19.04;59.50
23996;BME280;12207;50.076;8.848;2022-07-10T09:19:45;100956.81;;;19.40;58.88
23996;BME280;12207;50.076;8.848;2022-07-10T09:22:13;100948.38;;;19.47;57.90
23996;BME280;12207;50.076;8.848;2022-07-10T09:24:43;100945.16;;;19.55;58.37
23996;BME280;12207;50.076;8.848;2022-07-10T09:27:12;100943.31;;;19.83;58.15
23996;BME280;12207;50.076;8.848;2022-07-10T09:29:47;100943.28;;;19.82;58.05
23996;BME280;12207;50.076;8.848;2022-07-10T09:32:17;100945.91;;;19.83;57.15
23996;BME280;12207;50.076;8.848;2022-07-10T09:34:48;100945.72;;;19.75;57.62
23996;BME280;12207;50.076;8.848;2022-07-10T09:37:22;100951.03;;;19.48;58.58
23996;BME280;12207;50.076;8.848;2022-07-10T09:40:05;100940.22;;;19.33;58.56
23996;BME280;12207;50.076;8.848;2022-07-10T09:42:34;100931.34;;;18.93;59.74
23996;BME280;12207;50.076;8.848;2022-07-10T09:47:38;100941.88;;;20.67;57.63
23996;BME280;12207;50.076;8.848;2022-07-10T09:50:29;100941.75;;;20.24;56.37
23996;BME280;12207;50.076;8.848;2022-07-10T09:53:05;100934.53;;;20.11;56.61
23996;BME280;12207;50.076;8.848;2022-07-10T09:55:34;100942.84;;;19.65;57.60
23996;BME280;12207;50.076;8.848;2022-07-10T09:58:08;100931.00;;;19.11;60.28
23996;BME280;12207;50.076;8.848;2022-07-10T10:00:38;100930.56;;;19.57;58.31
23996;BME280;12207;50.076;8.848;2022-07-10T10:03:06;100924.91;;;20.06;57.44
23996;BME280;12207;50.076;8.848;2022-07-10T10:08:25;100915.81;;;22.50;52.54
23996;BME280;12207;50.076;8.848;2022-07-10T10:10:53;100908.22;;;22.08;52.86
23996;BME280;12207;50.076;8.848;2022-07-10T10:13:24;100903.44;;;22.33;53.16
23996;BME280;12207;50.076;8.848;2022-07-10T10:15:54;100905.84;;;21.23;52.91
23996;BME280;12207;50.076;8.848;2022-07-10T10:18:23;100908.19;;;21.09;54.55
23996;BME280;12207;50.076;8.848;2022-07-10T10:20:52;100899.69;;;20.36;56.59
23996;BME280;12207;50.076;8.848;2022-07-10T10:23:22;100895.44;;;20.02;57.21
23996;BME280;12207;50.076;8.848;2022-07-10T10:25:54;100902.03;;;19.89;58.20
23996;BME280;12207;50.076;8.848;2022-07-10T10:28:21;100898.22;;;19.75;57.84
23996;BME280;12207;50.076;8.848;2022-07-10T10:31:01;100897.16;;;19.67;58.76
23996;BME280;12207;50.076;8.848;2022-07-10T10:39:24;100906.91;;;20.12;58.49
23996;BME280;12207;50.076;8.848;2022-07-10T10:41:52;100898.03;;;20.40;57.69
23996;BME280;12207;50.076;8.848;2022-07-10T10:44:22;100893.16;;;20.93;57.49
23996;BME280;12207;50.076;8.848;2022-07-10T10:46:53;100894.16;;;21.44;52.88
23996;BME280;12207;50.076;8.848;2022-07-10T10:49:21;100889.72;;;21.88;51.79
23996;BME280;12207;50.076;8.848;2022-07-10T10:52:04;100881.16;;;21.44;53.24
23996;BME280;12207;50.076;8.848;2022-07-10T10:57:20;100875.94;;;22.51;50.64
23996;BME280;12207;50.076;8.848;2022-07-10T10:59:51;100873.38;;;21.97;51.43
23996;BME280;12207;50.076;8.848;2022-07-10T11:04:51;100881.25;;;22.59;49.27
23996;BME280;12207;50.076;8.848;2022-07-10T11:07:56;100881.81;;;22.37;51.03
23996;BME280;12207;50.076;8.848;2022-07-10T11:10:31;100867.53;;;22.72;49.32
23996;BME280;12207;50.076;8.848;2022-07-10T11:15:27;100874.69;;;20.78;53.72
23996;BME280;12207;50.076;8.848;2022-07-10T11:18:03;100873.81;;;20.77;54.38
23996;BME280;12207;50.076;8.848;2022-07-10T11:20:39;100878.09;;;20.75;55.64
23996;BME280;12207;50.076;8.848;2022-07-10T11:31:19;100876.75;;;20.53;55.68
23996;BME280;12207;50.076;8.848;2022-07-10T11:33:48;100878.31;;;20.86;54.52
23996;BME280;12207;50.076;8.848;2022-07-10T11:36:26;100874.72;;;20.79;54.54
23996;BME280;12207;50.076;8.848;2022-07-10T11:39:06;100866.84;;;21.20;53.67
23996;BME280;12207;50.076;8.848;2022-07-10T11:41:41;100868.63;;;22.24;51.97
23996;BME280;12207;50.076;8.848;2022-07-10T11:44:14;100863.56;;;21.77;51.11
23996;BME280;12207;50.076;8.848;2022-07-10T11:46:43;100862.00;;;21.38;51.54
23996;BME280;12207;50.076;8.848;2022-07-10T11:49:11;100853.94;;;21.23;52.56
23996;BME280;12207;50.076;8.848;2022-07-10T11:51:41;100857.44;;;22.28;51.45
23996;BME280;12207;50.076;8.848;2022-07-10T11:54:17;100853.56;;;22.03;52.44
23996;BME280;12207;50.076;8.848;2022-07-10T11:56:52;100845.59;;;22.49;50.11
23996;BME280;12207;50.076;8.848;2022-07-10T11:59:26;100843.34;;;22.16;50.38
23996;BME280;12207;50.076;8.848;2022-07-10T12:01:54;100841.16;;;22.45;50.21
23996;BME280;12207;50.076;8.848;2022-07-10T12:04:23;100836.88;;;22.47;50.55
23996;BME280;12207;50.076;8.848;2022-07-10T12:06:54;100843.38;;;22.83;49.80
23996;BME280;12207;50.076;8.848;2022-07-10T12:09:22;100839.03;;;22.82;49.39
23996;BME280;12207;50.076;8.848;2022-07-10T12:12:16;100845.44;;;22.40;50.30
23996;BME280;12207;50.076;8.848;2022-07-10T12:14:42;100838.94;;;22.10;50.71
23996;BME280;12207;50.076;8.848;2022-07-10T12:17:12;100842.91;;;22.43;50.52
23996;BME280;12207;50.076;8.848;2022-07-10T12:19:39;100848.47;;;22.75;48.45
23996;BME280;12207;50.076;8.848;2022-07-10T12:22:06;100846.16;;;22.28;49.44
23996;BME280;12207;50.076;8.848;2022-07-10T12:24:33;100850.50;;;22.29;51.30
23996;BME280;12207;50.076;8.848;2022-07-10T12:27:00;100845.00;;;21.56;51.21
23996;BME280;12207;50.076;8.848;2022-07-10T12:29:30;100838.56;;;22.45;49.94
23996;BME280;12207;50.076;8.848;2022-07-10T12:32:01;100834.19;;;22.42;50.88
23996;BME280;12207;50.076;8.848;2022-07-10T12:34:41;100842.53;;;22.85;49.39
23996;BME280;12207;50.076;8.848;2022-07-10T12:37:16;100839.00;;;22.80;48.18
23996;BME280;12207;50.076;8.848;2022-07-10T12:40:01;100840.06;;;22.96;49.12
23996;BME280;12207;50.076;8.848;2022-07-10T12:42:29;100846.88;;;22.85;49.21
23996;BME280;12207;50.076;8.848;2022-07-10T12:45:12;100852.25;;;22.30;49.64
23996;BME280;12207;50.076;8.848;2022-07-10T12:47:47;100846.97;;;21.71;50.81
23996;BME280;12207;50.076;8.848;2022-07-10T12:50:15;100853.34;;;21.88;50.90
23996;BME280;12207;50.076;8.848;2022-07-10T12:52:44;100844.59;;;22.42;51.55
23996;BME280;12207;50.076;8.848;2022-07-10T12:55:18;100828.88;;;22.32;50.82
23996;BME280;12207;50.076;8.848;2022-07-10T12:58:14;100853.16;;;22.34;50.08
23996;BME280;12207;50.076;8.848;2022-07-10T13:00:46;100842.59;;;22.21;50.60
23996;BME280;12207;50.076;8.848;2022-07-10T13:03:20;100839.16;;;22.22;50.47
23996;BME280;12207;50.076;8.848;2022-07-10T13:05:51;100838.44;;;22.36;49.49
23996;BME280;12207;50.076;8.848;2022-07-10T13:08:18;100838.25;;;22.22;50.75
23996;BME280;12207;50.076;8.848;2022-07-10T13:10:55;100831.03;;;22.66;50.98
23996;BME280;12207;50.076;8.848;2022-07-10T13:13:22;100840.31;;;23.17;48.91
23996;BME280;12207;50.076;8.848;2022-07-10T13:15:49;100835.78;;;22.96;48.46
23996;BME280;12207;50.076;8.848;2022-07-10T13:18:18;100834.50;;;22.65;50.44
23996;BME280;12207;50.076;8.848;2022-07-10T13:20:45;100825.81;;;22.66;51.26
23996;BME280;12207;50.076;8.848;2022-07-10T13:23:12;100830.09;;;22.58;50.11